sensor_id;sensor_type;location;lat;lon;timestamp;pressure;altitude;pressure_sealevel;temperature;humidity
48882;BME280;57063;51.406;-2.402;2022-10-31T00:00:59;100461.22;;;17.39;100.00
48882;BME280;57063;51.406;-2.402;2022-10-31T00:03:24;100470.41;;;17.17;100.00
48882;BME280;57063;51.406;-2.402;2022-10-31T00:05:51;100467.63;;;17.09;100.00
48882;BME280;57063;51.406;-2.402;2022-10-31T00:08:18;100472.44;;;17.33;100.00
48882;BME280;57063;51.406;-2.402;2022-10-31T00:10:44;100465.91;;;17.18;100.00
48882;BME280;57063;51.406;-2.402;2022-10-31T00:13:12;100458.16;;;17.44;100.00
48882;BME280;57063;51.406;-2.402;2022-10-31T00:15:39;100456.19;;;17.46;100.00
48882;BME280;57063;51.406;-2.402;2022-10-31T00:18:07;100452.56;;;17.65;100.00
48882;BME280;57063;51.406;-2.402;2022-10-31T00:20:33;100455.63;;;17.70;100.00
48882;BME280;57063;51.406;-2.402;2022-10-31T00:23:00;100448.59;;;17.51;100.00
48882;BME280;57063;51.406;-2.402;2022-10-31T00:25:28;100448.84;;;17.58;100.00
48882;BME280;57063;51.406;-2.402;2022-10-31T00:27:54;100440.63;;;17.23;100.00
48882;BME280;57063;51.406;-2.402;2022-10-31T00:30:20;100433.81;;;17.21;100.00
48882;BME280;57063;51.406;-2.402;2022-10-31T00:32:45;100448.63;;;17.14;100.00
48882;BME280;57063;51.406;-2.402;2022-10-31T00:35:11;100437.41;;;17.20;100.00
48882;BME280;57063;51.406;-2.402;2022-10-31T00:37:39;100433.56;;;17.14;100.00
48882;BME280;57063;51.406;-2.402;2022-10-31T00:40:05;100439.28;;;17.10;100.00
48882;BME280;57063;51.406;-2.402;2022-10-31T00:42:31;100432.81;;;16.94;100.00
48882;BME280;57063;51.406;-2.402;2022-10-31T00:44:57;100441.16;;;16.80;100.00
48882;BME280;57063;51.406;-2.402;2022-10-31T00:47:23;100452.13;;;17.14;100.00
48882;BME280;57063;51.406;-2.402;2022-10-31T00:49:48;100438.94;;;17.32;100.00
48882;BME280;57063;51.406;-2.402;2022-10-31T00:52:14;100440.44;;;17.35;100.00
48882;BME280;57063;51.406;-2.402;2022-10-31T00:54:40;100434.53;;;17.41;100.00
48882;BME280;57063;51.406;-2.402;2022-10-31T00:57:05;100438.53;;;17.27;100.00
48882;BME280;57063;51.406;-2.402;2022-10-31T00:59:31;100438.94;;;17.32;100.00
48882;BME280;57063;51.406;-2.402;2022-10-31T01:01:56;100433.91;;;17.29;100.00
48882;BME280;57063;51.406;-2.402;2022-10-31T01:04:22;100448.91;;;17.20;100.00
48882;BME280;57063;51.406;-2.402;2022-10-31T01:06:48;100437.94;;;17.33;100.00
48882;BME280;57063;51.406;-2.402;2022-10-31T01:09:14;100442.75;;;17.48;100.00
48882;BME280;57063;51.406;-2.402;2022-10-31T01:11:39;100439.31;;;17.37;100.00
48882;BME280;57063;51.406;-2.402;2022-10-31T01:14:05;100436.06;;;17.43;100.00
48882;BME280;57063;51.406;-2.402;2022-10-31T01:16:31;100443.09;;;17.35;100.00
48882;BME280;57063;51.406;-2.402;2022-10-31T01:18:59;100441.81;;;17.39;100.00
48882;BME280;57063;51.406;-2.402;2022-10-31T01:21:26;100427.91;;;17.27;100.00
48882;BME280;57063;51.406;-2.402;2022-10-31T01:23:53;100431.44;;;17.18;100.00
48882;BME280;57063;51.406;-2.402;2022-10-31T01:26:27;100431.88;;;17.13;100.00
48882;BME280;57063;51.406;-2.402;2022-10-31T01:28:58;100441.34;;;17.16;100.00
48882;BME280;57063;51.406;-2.402;2022-10-31T01:31:26;100440.16;;;17.10;100.00
48882;BME280;57063;51.406;-2.402;2022-10-31T01:33:53;100430.34;;;17.11;100.00
48882;BME280;57063;51.406;-2.402;2022-10-31T01:36:31;100433.38;;;17.16;100.00
48882;BME280;57063;51.406;-2.402;2022-10-31T01:39:10;100435.91;;;17.17;100.00
48882;BME280;57063;51.406;-2.402;2022-10-31T01:41:38;100434.16;;;17.08;100.00
48882;BME280;57063;51.406;-2.402;2022-10-31T01:46:52;100436.34;;;17.13;100.00
48882;BME280;57063;51.406;-2.402;2022-10-31T01:49:33;100461.03;;;17.23;100.00
48882;BME280;57063;51.406;-2.402;2022-10-31T01:55:16;100444.63;;;17.00;100.00
48882;BME280;57063;51.406;-2.402;2022-10-31T01:57:46;100437.44;;;16.73;100.00
48882;BME280;57063;51.406;-2.402;2022-10-31T02:00:14;100432.97;;;16.73;100.00
48882;BME280;57063;51.406;-2.402;2022-10-31T02:02:40;100432.66;;;16.76;100.00
48882;BME280;57063;51.406;-2.402;2022-10-31T02:05:10;100430.94;;;17.04;100.00
48882;BME280;57063;51.406;-2.402;2022-10-31T02:10:25;100430.00;;;16.86;100.00
48882;BME280;57063;51.406;-2.402;2022-10-31T02:12:53;100437.50;;;17.10;100.00
48882;BME280;57063;51.406;-2.402;2022-10-31T02:15:20;100449.63;;;17.13;100.00
48882;BME280;57063;51.406;-2.402;2022-10-31T02:17:46;100437.50;;;17.10;100.00
48882;BME280;57063;51.406;-2.402;2022-10-31T02:23:19;100440.44;;;17.62;100.00
48882;BME280;57063;51.406;-2.402;2022-10-31T02:36:22;100422.69;;;17.08;100.00
48882;BME280;57063;51.406;-2.402;2022-10-31T02:38:56;100433.94;;;17.19;100.00
48882;BME280;57063;51.406;-2.402;2022-10-31T02:41:37;100420.94;;;17.26;100.00
48882;BME280;57063;51.406;-2.402;2022-10-31T02:44:09;100433.53;;;17.52;100.00
48882;BME280;57063;51.406;-2.402;2022-10-31T02:46:50;100422.09;;;17.41;100.00
48882;BME280;57063;51.406;-2.402;2022-10-31T02:52:19;100415.81;;;17.15;100.00
48882;BME280;57063;51.406;-2.402;2022-10-31T02:54:47;100424.13;;;16.92;100.00
48882;BME280;57063;51.406;-2.402;2022-10-31T02:57:13;100402.88;;;17.02;100.00
48882;BME280;57063;51.406;-2.402;2022-10-31T02:59:45;100406.38;;;17.02;100.00
48882;BME280;57063;51.406;-2.402;2022-10-31T03:05:11;100416.00;;;17.03;100.00
48882;BME280;57063;51.406;-2.402;2022-10-31T03:10:37;100378.19;;;17.01;100.00
48882;BME280;57063;51.406;-2.402;2022-10-31T03:18:35;100376.56;;;16.81;100.00
48882;BME280;57063;51.406;-2.402;2022-10-31T03:21:11;100388.03;;;16.72;100.00
48882;BME280;57063;51.406;-2.402;2022-10-31T03:23:40;100383.03;;;16.69;100.00
48882;BME280;57063;51.406;-2.402;2022-10-31T03:26:08;100377.47;;;16.52;100.00
48882;BME280;57063;51.406;-2.402;2022-10-31T03:28:43;100376.63;;;16.61;100.00
48882;BME280;57063;51.406;-2.402;2022-10-31T03:31:13;100362.38;;;16.62;100.00
48882;BME280;57063;51.406;-2.402;2022-10-31T03:33:42;100375.28;;;16.38;100.00
48882;BME280;57063;51.406;-2.402;2022-10-31T03:36:10;100377.13;;;16.28;100.00
48882;BME280;57063;51.406;-2.402;2022-10-31T03:38:38;100379.44;;;16.50;100.00
48882;BME280;57063;51.406;-2.402;2022-10-31T03:41:06;100388.03;;;16.72;100.00
48882;BME280;57063;51.406;-2.402;2022-10-31T03:43:37;100381.31;;;16.77;100.00
48882;BME280;57063;51.406;-2.402;2022-10-31T03:46:05;100367.66;;;16.82;100.00
48882;BME280;57063;51.406;-2.402;2022-10-31T03:48:31;100362.44;;;16.80;100.00
48882;BME280;57063;51.406;-2.402;2022-10-31T03:51:12;100372.09;;;16.91;100.00
48882;BME280;57063;51.406;-2.402;2022-10-31T03:54:21;100371.44;;;16.70;100.00
48882;BME280;57063;51.406;-2.402;2022-10-31T03:56:57;100372.16;;;16.62;100.00
48882;BME280;57063;51.406;-2.402;2022-10-31T03:59:30;100381.34;;;16.68;100.00
48882;BME280;57063;51.406;-2.402;2022-10-31T04:02:05;100370.75;;;16.68;100.00
48882;BME280;57063;51.406;-2.402;2022-10-31T04:04:32;100358.75;;;16.63;100.00
48882;BME280;57063;51.406;-2.402;2022-10-31T04:07:00;100360.56;;;16.73;100.00
48882;BME280;57063;51.406;-2.402;2022-10-31T04:09:28;100363.94;;;17.02;100.00
48882;BME280;57063;51.406;-2.402;2022-10-31T04:11:57;100362.84;;;16.95;100.00
48882;BME280;57063;51.406;-2.402;2022-10-31T04:14:26;100351.09;;;16.98;100.00
48882;BME280;57063;51.406;-2.402;2022-10-31T04:16:54;100367.50;;;16.74;100.00
48882;BME280;57063;51.406;-2.402;2022-10-31T04:19:20;100354.25;;;16.83;100.00
48882;BME280;57063;51.406;-2.402;2022-10-31T04:21:45;100358.69;;;16.93;100.00
48882;BME280;57063;51.406;-2.402;2022-10-31T04:24:11;100362.72;;;16.97;100.00
48882;BME280;57063;51.406;-2.402;2022-10-31T04:26:37;100355.44;;;16.99;100.00
48882;BME280;57063;51.406;-2.402;2022-10-31T04:29:02;100359.09;;;17.16;100.00
48882;BME280;57063;51.406;-2.402;2022-10-31T04:31:28;100356.03;;;16.93;100.00
48882;BME280;57063;51.406;-2.402;2022-10-31T04:33:54;100365.59;;;17.03;100.00
48882;BME280;57063;51.406;-2.402;2022-10-31T04:36:19;100368.34;;;17.12;100.00
48882;BME280;57063;51.406;-2.402;2022-10-31T04:38:45;100368.28;;;17.21;100.00
48882;BME280;57063;51.406;-2.402;2022-10-31T04:41:10;100365.50;;;17.23;100.00
48882;BME280;57063;51.406;-2.402;2022-10-31T04:43:36;100352.22;;;17.23;100.00
48882;BME280;57063;51.406;-2.402;2022-10-31T04:46:02;100356.66;;;17.32;100.00
48882;BME280;57063;51.406;-2.402;2022-10-31T04:48:27;100363.94;;;17.30;100.00
48882;BME280;57063;51.406;-2.402;2022-10-31T04:50:53;100355.22;;;17.38;100.00
48882;BME280;57063;51.406;-2.402;2022-10-31T04:53:23;100364.22;;;17.27;100.00
48882;BME280;57063;51.406;-2.402;2022-10-31T04:55:48;100358.69;;;17.20;100.00
48882;BME280;57063;51.406;-2.402;2022-10-31T04:58:14;100356.63;;;17.14;100.00
48882;BME280;57063;51.406;-2.402;2022-10-31T05:00:39;100360.94;;;17.15;100.00
48882;BME280;57063;51.406;-2.402;2022-10-31T05:03:05;100337.94;;;17.34;100.00
48882;BME280;57063;51.406;-2.402;2022-10-31T05:05:31;100341.72;;;17.03;100.00
48882;BME280;57063;51.406;-2.402;2022-10-31T05:07:56;100337.09;;;17.05;100.00
48882;BME280;57063;51.406;-2.402;2022-10-31T05:10:27;100341.00;;;17.11;100.00
48882;BME280;57063;51.406;-2.402;2022-10-31T05:12:55;100333.25;;;17.18;100.00
48882;BME280;57063;51.406;-2.402;2022-10-31T05:15:23;100340.38;;;17.17;100.00
48882;BME280;57063;51.406;-2.402;2022-10-31T05:17:49;100345.97;;;17.24;100.00
48882;BME280;57063;51.406;-2.402;2022-10-31T05:20:16;100326.69;;;17.22;100.00
48882;BME280;57063;51.406;-2.402;2022-10-31T05:22:43;100342.06;;;17.18;100.00
48882;BME280;57063;51.406;-2.402;2022-10-31T05:25:09;100336.28;;;17.05;100.00
48882;BME280;57063;51.406;-2.402;2022-10-31T05:27:38;100323.69;;;17.07;100.00
48882;BME280;57063;51.406;-2.402;2022-10-31T05:30:04;100310.38;;;17.17;100.00
48882;BME280;57063;51.406;-2.402;2022-10-31T05:32:39;100314.41;;;17.21;100.00
48882;BME280;57063;51.406;-2.402;2022-10-31T05:35:09;100325.06;;;17.11;100.00
48882;BME280;57063;51.406;-2.402;2022-10-31T05:37:35;100320.00;;;16.90;100.00
48882;BME280;57063;51.406;-2.402;2022-10-31T05:40:02;100315.91;;;16.68;100.00
48882;BME280;57063;51.406;-2.402;2022-10-31T05:42:28;100303.25;;;16.52;100.00
48882;BME280;57063;51.406;-2.402;2022-10-31T05:44:53;100296.13;;;16.53;100.00
48882;BME280;57063;51.406;-2.402;2022-10-31T05:47:19;100306.53;;;16.83;100.00
48882;BME280;57063;51.406;-2.402;2022-10-31T05:49:44;100291.31;;;16.76;100.00
48882;BME280;57063;51.406;-2.402;2022-10-31T05:52:10;100292.41;;;16.45;100.00
48882;BME280;57063;51.406;-2.402;2022-10-31T05:54:36;100293.47;;;16.62;100.00
48882;BME280;57063;51.406;-2.402;2022-10-31T05:57:01;100289.75;;;16.55;100.00
48882;BME280;57063;51.406;-2.402;2022-10-31T05:59:27;100294.22;;;16.55;100.00
48882;BME280;57063;51.406;-2.402;2022-10-31T06:01:53;100288.25;;;16.43;100.00
48882;BME280;57063;51.406;-2.402;2022-10-31T06:04:18;100286.59;;;16.32;100.00
48882;BME280;57063;51.406;-2.402;2022-10-31T06:06:44;100281.38;;;16.03;100.00
48882;BME280;57063;51.406;-2.402;2022-10-31T06:09:09;100277.78;;;15.94;100.00
48882;BME280;57063;51.406;-2.402;2022-10-31T06:11:35;100276.97;;;15.84;100.00
48882;BME280;57063;51.406;-2.402;2022-10-31T06:14:01;100279.69;;;16.12;100.00
48882;BME280;57063;51.406;-2.402;2022-10-31T06:16:27;100285.94;;;16.20;100.00
48882;BME280;57063;51.406;-2.402;2022-10-31T06:18:53;100282.53;;;15.91;100.00
48882;BME280;57063;51.406;-2.402;2022-10-31T06:21:21;100279.59;;;15.94;100.00
48882;BME280;57063;51.406;-2.402;2022-10-31T06:23:47;100281.94;;;16.06;100.00
48882;BME280;57063;51.406;-2.402;2022-10-31T06:26:12;100280.41;;;16.04;100.00
48882;BME280;57063;51.406;-2.402;2022-10-31T06:28:38;100285.03;;;15.82;100.00
48882;BME280;57063;51.406;-2.402;2022-10-31T06:31:04;100276.53;;;15.89;100.00
48882;BME280;57063;51.406;-2.402;2022-10-31T06:33:29;100282.50;;;15.71;100.00
48882;BME280;57063;51.406;-2.402;2022-10-31T06:35:55;100285.59;;;15.96;100.00
48882;BME280;57063;51.406;-2.402;2022-10-31T06:38:21;100283.41;;;16.29;100.00
48882;BME280;57063;51.406;-2.402;2022-10-31T06:40:47;100281.16;;;15.77;100.00
48882;BME280;57063;51.406;-2.402;2022-10-31T06:43:12;100281.13;;;15.96;100.00
48882;BME280;57063;51.406;-2.402;2022-10-31T06:45:40;100287.38;;;15.95;100.00
48882;BME280;57063;51.406;-2.402;2022-10-31T06:48:07;100285.72;;;15.94;100.00
48882;BME280;57063;51.406;-2.402;2022-10-31T06:50:32;100288.63;;;16.01;100.00
48882;BME280;57063;51.406;-2.402;2022-10-31T06:52:58;100272.94;;;15.80;100.00
48882;BME280;57063;51.406;-2.402;2022-10-31T06:55:25;100268.31;;;15.92;100.00
48882;BME280;57063;51.406;-2.402;2022-10-31T06:57:56;100272.19;;;15.97;100.00
48882;BME280;57063;51.406;-2.402;2022-10-31T07:00:23;100261.75;;;16.05;100.00
48882;BME280;57063;51.406;-2.402;2022-10-31T07:02:58;100274.75;;;16.26;100.00
48882;BME280;57063;51.406;-2.402;2022-10-31T07:05:25;100256.41;;;16.15;100.00
48882;BME280;57063;51.406;-2.402;2022-10-31T07:07:58;100255.66;;;16.23;100.00
48882;BME280;57063;51.406;-2.402;2022-10-31T07:10:26;100252.19;;;16.22;100.00
48882;BME280;57063;51.406;-2.402;2022-10-31T07:12:55;100250.69;;;16.10;100.00
48882;BME280;57063;51.406;-2.402;2022-10-31T07:15:22;100261.22;;;16.39;100.00
48882;BME280;57063;51.406;-2.402;2022-10-31T07:17:48;100241.63;;;16.13;100.00
48882;BME280;57063;51.406;-2.402;2022-10-31T07:20:13;100249.47;;;16.42;100.00
48882;BME280;57063;51.406;-2.402;2022-10-31T07:22:39;100248.88;;;16.48;100.00
48882;BME280;57063;51.406;-2.402;2022-10-31T07:25:05;100270.78;;;16.78;100.00
48882;BME280;57063;51.406;-2.402;2022-10-31T07:27:39;100261.16;;;16.87;100.00
48882;BME280;57063;51.406;-2.402;2022-10-31T07:30:06;100263.59;;;16.33;100.00
48882;BME280;57063;51.406;-2.402;2022-10-31T07:32:43;100275.53;;;15.99;100.00
48882;BME280;57063;51.406;-2.402;2022-10-31T07:35:13;100267.69;;;16.17;100.00
48882;BME280;57063;51.406;-2.402;2022-10-31T07:37:40;100273.63;;;15.92;100.00
48882;BME280;57063;51.406;-2.402;2022-10-31T07:40:07;100269.97;;;16.40;100.00
48882;BME280;57063;51.406;-2.402;2022-10-31T07:42:38;100276.03;;;16.22;100.00
48882;BME280;57063;51.406;-2.402;2022-10-31T07:45:05;100272.13;;;16.17;100.00
48882;BME280;57063;51.406;-2.402;2022-10-31T07:47:52;100285.88;;;16.77;100.00
48882;BME280;57063;51.406;-2.402;2022-10-31T07:53:09;100266.75;;;16.46;100.00
48882;BME280;57063;51.406;-2.402;2022-10-31T07:55:37;100271.69;;;16.69;100.00
48882;BME280;57063;51.406;-2.402;2022-10-31T07:58:35;100274.16;;;16.70;100.00
48882;BME280;57063;51.406;-2.402;2022-10-31T08:01:14;100270.22;;;17.48;100.00
48882;BME280;57063;51.406;-2.402;2022-10-31T12:43:58;99875.03;;;22.52;59.98
48882;BME280;57063;51.406;-2.402;2022-10-31T12:46:49;99859.31;;;22.21;60.68
48882;BME280;57063;51.406;-2.402;2022-10-31T12:50:05;99866.47;;;23.47;58.87
48882;BME280;57063;51.406;-2.402;2022-10-31T12:55:53;99843.44;;;20.82;63.69
48882;BME280;57063;51.406;-2.402;2022-10-31T12:58:55;99845.59;;;21.23;63.54
48882;BME280;57063;51.406;-2.402;2022-10-31T13:01:35;99819.75;;;20.49;65.99
48882;BME280;57063;51.406;-2.402;2022-10-31T13:04:15;99821.44;;;21.31;64.36
48882;BME280;57063;51.406;-2.402;2022-10-31T13:10:42;99809.09;;;20.79;65.78
48882;BME280;57063;51.406;-2.402;2022-10-31T13:16:50;99797.53;;;20.72;65.02
48882;BME280;57063;51.406;-2.402;2022-10-31T13:19:39;99801.78;;;20.13;66.84
48882;BME280;57063;51.406;-2.402;2022-10-31T13:22:24;99784.22;;;20.04;68.04
48882;BME280;57063;51.406;-2.402;2022-10-31T13:25:02;99798.34;;;20.72;67.04
48882;BME280;57063;51.406;-2.402;2022-10-31T13:27:54;99766.59;;;20.48;67.47
48882;BME280;57063;51.406;-2.402;2022-10-31T13:30:24;99765.25;;;21.39;64.97
48882;BME280;57063;51.406;-2.402;2022-10-31T13:33:31;99752.94;;;21.60;65.13
48882;BME280;57063;51.406;-2.402;2022-10-31T13:36:32;99753.97;;;21.87;63.24
48882;BME280;57063;51.406;-2.402;2022-10-31T13:42:17;99745.03;;;21.73;62.83
48882;BME280;57063;51.406;-2.402;2022-10-31T13:44:44;99729.91;;;21.59;63.55
48882;BME280;57063;51.406;-2.402;2022-10-31T13:47:28;99731.56;;;21.60;63.88
48882;BME280;57063;51.406;-2.402;2022-10-31T13:53:43;99712.75;;;21.25;63.39
48882;BME280;57063;51.406;-2.402;2022-10-31T13:58:38;99699.09;;;20.47;64.67
48882;BME280;57063;51.406;-2.402;2022-10-31T14:03:39;99701.91;;;20.90;64.34
48882;BME280;57063;51.406;-2.402;2022-10-31T14:06:07;99704.63;;;20.75;64.41
48882;BME280;57063;51.406;-2.402;2022-10-31T14:08:41;99697.28;;;20.63;65.25
48882;BME280;57063;51.406;-2.402;2022-10-31T14:11:25;99690.00;;;20.41;65.42
48882;BME280;57063;51.406;-2.402;2022-10-31T14:14:08;99689.34;;;20.69;65.54
48882;BME280;57063;51.406;-2.402;2022-10-31T14:16:43;99691.50;;;20.14;66.66
48882;BME280;57063;51.406;-2.402;2022-10-31T14:19:33;99685.78;;;20.62;65.88
48882;BME280;57063;51.406;-2.402;2022-10-31T14:22:01;99668.06;;;20.25;67.54
48882;BME280;57063;51.406;-2.402;2022-10-31T14:24:38;99674.88;;;20.12;67.59
48882;BME280;57063;51.406;-2.402;2022-10-31T14:29:53;99648.19;;;20.42;67.57
48882;BME280;57063;51.406;-2.402;2022-10-31T14:32:23;99639.91;;;20.37;68.84
48882;BME280;57063;51.406;-2.402;2022-10-31T14:48:30;99615.84;;;19.56;76.56
48882;BME280;57063;51.406;-2.402;2022-10-31T14:51:01;99598.16;;;19.25;78.82
48882;BME280;57063;51.406;-2.402;2022-10-31T14:53:32;99597.84;;;19.58;79.36
48882;BME280;57063;51.406;-2.402;2022-10-31T14:56:08;99569.44;;;19.20;84.71
48882;BME280;57063;51.406;-2.402;2022-10-31T14:59:02;99584.16;;;19.31;94.56
48882;BME280;57063;51.406;-2.402;2022-10-31T15:04:27;99559.78;;;17.96;100.00
48882;BME280;57063;51.406;-2.402;2022-10-31T15:07:00;99563.59;;;18.24;100.00
48882;BME280;57063;51.406;-2.402;2022-10-31T15:09:30;99553.69;;;18.18;100.00
48882;BME280;57063;51.406;-2.402;2022-10-31T15:11:59;99562.66;;;18.72;100.00
48882;BME280;57063;51.406;-2.402;2022-10-31T15:14:30;99557.25;;;18.34;100.00
48882;BME280;57063;51.406;-2.402;2022-10-31T15:17:02;99552.31;;;17.83;100.00
48882;BME280;57063;51.406;-2.402;2022-10-31T15:19:30;99551.56;;;18.14;100.00
48882;BME280;57063;51.406;-2.402;2022-10-31T15:21:58;99525.38;;;17.55;100.00
48882;BME280;57063;51.406;-2.402;2022-10-31T15:24:29;99530.59;;;17.40;100.00
48882;BME280;57063;51.406;-2.402;2022-10-31T15:27:02;99504.72;;;17.34;100.00
48882;BME280;57063;51.406;-2.402;2022-10-31T15:32:49;99481.47;;;17.44;100.00
48882;BME280;57063;51.406;-2.402;2022-10-31T15:35:30;99493.22;;;17.50;100.00
48882;BME280;57063;51.406;-2.402;2022-10-31T15:37:58;99472.91;;;17.73;100.00
48882;BME280;57063;51.406;-2.402;2022-10-31T15:40:27;99462.03;;;17.52;100.00
48882;BME280;57063;51.406;-2.402;2022-10-31T15:43:04;99461.16;;;17.12;100.00
48882;BME280;57063;51.406;-2.402;2022-10-31T15:45:34;99463.06;;;17.42;100.00
48882;BME280;57063;51.406;-2.402;2022-10-31T15:48:03;99453.31;;;17.35;100.00
48882;BME280;57063;51.406;-2.402;2022-10-31T15:50:38;99450.81;;;17.73;100.00
48882;BME280;57063;51.406;-2.402;2022-10-31T15:53:11;99449.13;;;16.93;100.00
48882;BME280;57063;51.406;-2.402;2022-10-31T15:55:48;99448.44;;;16.99;100.00
48882;BME280;57063;51.406;-2.402;2022-10-31T15:58:16;99440.47;;;16.99;100.00
48882;BME280;57063;51.406;-2.402;2022-10-31T16:00:43;99432.59;;;17.30;100.00
48882;BME280;57063;51.406;-2.402;2022-10-31T16:05:48;99401.63;;;17.22;100.00
48882;BME280;57063;51.406;-2.402;2022-10-31T16:13:37;99399.38;;;17.03;100.00
48882;BME280;57063;51.406;-2.402;2022-10-31T16:16:12;99383.59;;;17.10;100.00
48882;BME280;57063;51.406;-2.402;2022-10-31T16:18:40;99374.69;;;17.02;100.00
48882;BME280;57063;51.406;-2.402;2022-10-31T16:21:06;99359.44;;;17.04;100.00
48882;BME280;57063;51.406;-2.402;2022-10-31T16:23:33;99373.13;;;16.28;100.00
48882;BME280;57063;51.406;-2.402;2022-10-31T16:25:58;99347.34;;;16.94;100.00
48882;BME280;57063;51.406;-2.402;2022-10-31T16:28:28;99340.91;;;16.88;100.00
48882;BME280;57063;51.406;-2.402;2022-10-31T16:30:56;99343.97;;;16.44;100.00
48882;BME280;57063;51.406;-2.402;2022-10-31T16:33:29;99345.56;;;16.70;100.00
48882;BME280;57063;51.406;-2.402;2022-10-31T16:35:56;99331.25;;;16.31;100.00
48882;BME280;57063;51.406;-2.402;2022-10-31T16:38:25;99310.91;;;15.82;100.00
48882;BME280;57063;51.406;-2.402;2022-10-31T16:40:51;99301.13;;;16.16;100.00
48882;BME280;57063;51.406;-2.402;2022-10-31T16:43:18;99284.88;;;16.35;100.00
48882;BME280;57063;51.406;-2.402;2022-10-31T16:45:47;99284.75;;;16.20;100.00
48882;BME280;57063;51.406;-2.402;2022-10-31T16:48:16;99300.00;;;16.02;100.00
48882;BME280;57063;51.406;-2.402;2022-10-31T16:50:43;99317.19;;;16.06;100.00
48882;BME280;57063;51.406;-2.402;2022-10-31T16:53:10;99301.78;;;15.93;100.00
48882;BME280;57063;51.406;-2.402;2022-10-31T16:55:43;99287.38;;;16.20;100.00
48882;BME280;57063;51.406;-2.402;2022-10-31T16:58:15;99295.03;;;16.15;100.00
48882;BME280;57063;51.406;-2.402;2022-10-31T17:00:41;99277.81;;;15.86;100.00
48882;BME280;57063;51.406;-2.402;2022-10-31T17:03:34;99280.53;;;16.51;100.00
48882;BME280;57063;51.406;-2.402;2022-10-31T17:23:58;99237.94;;;15.47;100.00
48882;BME280;57063;51.406;-2.402;2022-10-31T17:26:26;99248.91;;;25.54;100.00
48882;BME280;57063;51.406;-2.402;2022-10-31T17:29:03;99218.59;;;31.87;100.00
48882;BME280;57063;51.406;-2.402;2022-10-31T17:31:42;60209.53;;;-144.40;100.00
48882;BME280;57063;51.406;-2.402;2022-10-31T17:34:12;60209.53;;;-144.40;100.00
48882;BME280;57063;51.406;-2.402;2022-10-31T17:36:56;60209.53;;;-144.40;100.00
48882;BME280;57063;51.406;-2.402;2022-10-31T17:40:35;60209.53;;;-144.40;100.00
48882;BME280;57063;51.406;-2.402;2022-10-31T17:44:21;60209.53;;;-144.40;100.00
48882;BME280;57063;51.406;-2.402;2022-10-31T17:47:52;60209.53;;;-144.40;100.00
48882;BME280;57063;51.406;-2.402;2022-10-31T17:51:21;60209.53;;;-144.40;100.00
48882;BME280;57063;51.406;-2.402;2022-10-31T17:54:54;60209.53;;;-144.40;100.00
48882;BME280;57063;51.406;-2.402;2022-10-31T17:58:10;60209.53;;;-144.40;100.00
